createdAt,value
2022-11-05T00:01:48.931Z,96909.47
2022-11-05T00:04:34.298Z,96924.31
2022-11-05T00:07:35.268Z,96932.16
2022-11-05T00:10:22.818Z,96920.00
2022-11-05T00:13:08.297Z,96921.34
2022-11-05T00:15:53.269Z,96937.59
2022-11-05T00:18:19.689Z,96939.03
2022-11-05T00:20:46.252Z,96930.16
2022-11-05T00:23:30.965Z,96936.25
2022-11-05T00:25:59.560Z,96937.81
2022-11-05T00:28:28.248Z,96931.19
2022-11-05T00:30:59.731Z,96938.00
2022-11-05T00:33:26.112Z,96934.34
2022-11-05T00:35:52.588Z,96931.28
2022-11-05T00:38:18.979Z,96934.66
2022-11-05T00:40:45.706Z,96936.47
2022-11-05T00:43:30.744Z,96942.88
2022-11-05T00:45:57.130Z,96943.38
2022-11-05T00:48:41.807Z,96953.34
2022-11-05T00:51:08.488Z,96952.38
2022-11-05T00:53:35.347Z,96969.81
2022-11-05T00:56:02.124Z,96955.72
2022-11-05T00:58:29.184Z,96959.28
2022-11-05T01:01:00.246Z,96971.81
2022-11-05T01:03:30.958Z,96982.09
2022-11-05T01:06:18.726Z,96975.38
2022-11-05T01:08:46.271Z,96984.84
2022-11-05T01:11:34.303Z,96986.09
2022-11-05T01:14:02.775Z,96983.91
2022-11-05T01:16:29.472Z,96976.72
2022-11-05T01:18:56.271Z,96987.84
2022-11-05T01:21:22.662Z,96991.38
2022-11-05T01:23:49.179Z,96987.28
2022-11-05T01:26:15.676Z,96983.25
2022-11-05T01:28:42.111Z,96991.56
2022-11-05T01:31:08.600Z,96995.97
2022-11-05T01:33:34.983Z,96998.56
2022-11-05T01:36:01.419Z,96998.47
2022-11-05T01:38:27.778Z,97002.41
2022-11-05T01:40:54.203Z,97010.16
2022-11-05T01:43:23.575Z,97013.44
2022-11-05T01:45:53.265Z,97005.75
2022-11-05T01:48:38.353Z,97017.84
2022-11-05T01:51:08.743Z,97016.78
2022-11-05T01:53:49.195Z,97017.56
2022-11-05T01:56:34.459Z,97011.03
2022-11-05T01:59:06.001Z,97018.03
2022-11-05T02:01:33.166Z,97005.50
2022-11-05T02:04:03.804Z,97012.59
2022-11-05T02:06:34.166Z,97011.31
2022-11-05T02:09:06.566Z,97019.69
2022-11-05T02:11:33.466Z,97014.97
2022-11-05T02:14:00.067Z,97018.22
2022-11-05T02:16:45.681Z,97011.91
2022-11-05T02:19:38.802Z,97022.06
2022-11-05T02:22:22.139Z,97025.13
2022-11-05T02:24:56.299Z,97033.06
2022-11-05T02:27:44.086Z,97037.34
2022-11-05T02:30:19.492Z,97049.63
2022-11-05T02:33:14.021Z,97050.56
2022-11-05T02:35:57.250Z,97034.81
2022-11-05T02:38:31.258Z,97044.69
2022-11-05T02:41:10.293Z,97056.47
2022-11-05T02:43:52.703Z,97047.88
2022-11-05T02:46:26.740Z,97041.75
2022-11-05T02:49:18.871Z,97041.28
2022-11-05T02:51:52.207Z,97056.72
2022-11-05T02:54:33.928Z,97061.09
2022-11-05T02:57:03.003Z,97051.00
2022-11-05T02:59:29.615Z,97052.81
2022-11-05T03:01:57.250Z,97053.50
2022-11-05T03:04:24.995Z,97050.72
2022-11-05T03:07:36.076Z,97061.53
2022-11-05T03:10:08.275Z,97065.94
2022-11-05T03:12:52.285Z,97064.81
2022-11-05T03:15:39.363Z,97069.72
2022-11-05T03:18:05.661Z,97069.09
2022-11-05T03:20:48.424Z,97071.06
2022-11-05T03:23:29.116Z,97070.91
2022-11-05T03:26:12.471Z,97072.56
2022-11-05T03:28:42.961Z,97072.09
2022-11-05T03:31:14.090Z,97073.41
2022-11-05T03:33:43.091Z,97077.56
2022-11-05T03:36:25.036Z,97080.41
2022-11-05T03:38:54.123Z,97064.03
2022-11-05T03:41:22.647Z,97077.19
2022-11-05T03:43:51.914Z,97088.06
2022-11-05T03:46:40.957Z,97099.41
2022-11-05T03:49:12.833Z,97093.69
2022-11-05T03:51:43.969Z,97090.81
2022-11-05T03:54:10.837Z,97097.59
2022-11-05T03:56:53.408Z,97091.28
2022-11-05T03:59:20.387Z,97087.00
2022-11-05T04:01:47.373Z,97101.59
2022-11-05T04:04:13.794Z,97100.19
2022-11-05T04:06:58.727Z,97111.81
2022-11-05T04:09:48.052Z,97110.38
2022-11-05T04:12:32.818Z,97121.50
2022-11-05T04:14:59.184Z,97116.69
2022-11-05T04:17:25.575Z,97121.31
2022-11-05T04:20:10.938Z,97129.97
2022-11-05T04:22:55.684Z,97121.03
2022-11-05T04:25:22.487Z,97123.78
2022-11-05T04:27:49.523Z,97124.66
2022-11-05T04:30:20.681Z,97134.13
2022-11-05T04:33:07.320Z,97137.06
2022-11-05T04:35:39.232Z,97135.72
2022-11-05T04:38:08.039Z,97143.78
2022-11-05T04:40:35.158Z,97151.69
2022-11-05T04:43:01.685Z,97146.09
2022-11-05T04:45:31.878Z,97149.13
2022-11-05T04:47:58.326Z,97154.53
2022-11-05T04:50:24.666Z,97142.13
2022-11-05T04:52:51.239Z,97159.44
2022-11-05T04:55:17.868Z,97147.72
2022-11-05T04:57:47.951Z,97149.69
2022-11-05T05:00:14.404Z,97166.28
2022-11-05T05:02:40.809Z,97161.59
2022-11-05T05:05:07.317Z,97157.06
2022-11-05T05:07:34.563Z,97159.47
2022-11-05T05:10:01.801Z,97168.19
2022-11-05T05:12:28.359Z,97165.66
2022-11-05T05:14:54.728Z,97167.16
2022-11-05T05:17:21.073Z,97167.56
2022-11-05T05:20:06.106Z,97157.59
2022-11-05T05:22:32.477Z,97167.28
2022-11-05T05:24:59.989Z,97171.91
2022-11-05T05:27:29.954Z,97178.19
2022-11-05T05:29:58.025Z,97179.53
2022-11-05T05:32:25.709Z,97177.34
2022-11-05T05:34:52.666Z,97183.34
2022-11-05T05:37:19.667Z,97185.09
2022-11-05T05:39:47.711Z,97186.34
2022-11-05T05:42:14.676Z,97199.41
2022-11-05T05:44:41.245Z,97192.50
2022-11-05T05:47:07.678Z,97203.41
2022-11-05T05:49:34.044Z,97203.47
2022-11-05T05:52:00.446Z,97194.72
2022-11-05T05:54:31.895Z,97202.53
2022-11-05T05:56:59.894Z,97203.56
2022-11-05T05:59:26.311Z,97207.69
2022-11-05T06:01:53.313Z,97211.47
2022-11-05T06:04:20.562Z,97209.09
2022-11-05T06:06:46.994Z,97206.88
2022-11-05T06:09:14.409Z,97209.75
2022-11-05T06:11:41.227Z,97215.47
2022-11-05T06:14:10.863Z,97223.50
2022-11-05T06:16:38.918Z,97225.31
2022-11-05T06:19:06.400Z,97227.56
2022-11-05T06:21:33.029Z,97236.00
2022-11-05T06:24:00.242Z,97241.78
2022-11-05T06:26:26.585Z,97231.03
2022-11-05T06:28:52.952Z,97253.44
2022-11-05T06:31:19.340Z,97245.19
2022-11-05T06:33:47.143Z,97250.84
2022-11-05T06:36:17.970Z,97253.59
2022-11-05T06:38:44.575Z,97258.00
2022-11-05T06:41:11.120Z,97246.47
2022-11-05T06:43:38.564Z,97256.19
2022-11-05T06:46:05.673Z,97257.69
2022-11-05T06:48:32.306Z,97266.59
2022-11-05T06:50:58.692Z,97271.53
2022-11-05T06:53:25.227Z,97263.59
2022-11-05T06:55:51.646Z,97264.19
2022-11-05T06:58:18.186Z,97278.31
2022-11-05T07:00:44.857Z,97288.53
2022-11-05T07:03:12.614Z,97286.22
2022-11-05T07:05:43.669Z,97284.78
2022-11-05T07:08:10.021Z,97301.75
2022-11-05T07:10:36.391Z,97301.56
2022-11-05T07:13:07.795Z,97304.13
2022-11-05T07:15:34.904Z,97313.06
2022-11-05T07:18:01.829Z,97301.91
2022-11-05T07:20:33.267Z,97318.38
2022-11-05T07:23:11.445Z,97311.47
2022-11-05T07:25:38.420Z,97311.75
2022-11-05T07:28:05.414Z,97315.38
2022-11-05T07:30:33.357Z,97316.97
2022-11-05T07:33:00.170Z,97333.41
2022-11-05T07:35:26.572Z,97334.78
2022-11-05T07:37:54.555Z,97322.69
2022-11-05T07:40:22.908Z,97327.81
2022-11-05T07:42:54.531Z,97338.41
2022-11-05T07:45:21.332Z,97337.53
2022-11-05T07:47:56.491Z,97344.16
2022-11-05T07:50:25.356Z,97331.50
2022-11-05T07:52:52.020Z,97344.34
2022-11-05T07:55:20.140Z,97353.13
2022-11-05T07:57:48.750Z,97350.00
2022-11-05T08:00:18.122Z,97352.28
2022-11-05T08:02:44.713Z,97355.66
2022-11-05T08:05:11.289Z,97360.81
2022-11-05T08:07:37.718Z,97348.38
2022-11-05T08:10:04.547Z,97366.84
2022-11-05T08:12:32.024Z,97343.69
2022-11-05T08:14:58.523Z,97353.19
2022-11-05T08:17:24.940Z,97352.16
2022-11-05T08:19:51.295Z,97355.34
2022-11-05T08:22:17.647Z,97354.44
2022-11-05T08:24:43.980Z,97351.25
2022-11-05T08:27:10.368Z,97354.63
2022-11-05T08:29:36.746Z,97351.28
2022-11-05T08:32:03.220Z,97348.47
2022-11-05T08:34:29.557Z,97359.81
2022-11-05T08:36:55.951Z,97352.38
2022-11-05T08:39:22.354Z,97359.75
2022-11-05T08:41:48.727Z,97362.63
2022-11-05T08:44:15.064Z,97368.25
2022-11-05T08:46:41.902Z,97373.09
2022-11-05T08:49:08.369Z,97381.56
2022-11-05T08:51:34.743Z,97391.09
2022-11-05T08:54:01.103Z,97383.91
2022-11-05T08:56:27.500Z,97386.50
2022-11-05T08:58:53.939Z,97392.41
2022-11-05T09:01:20.459Z,97384.16
2022-11-05T09:03:51.207Z,97386.41
2022-11-05T09:06:18.038Z,97396.63
2022-11-05T09:08:44.382Z,97397.66
2022-11-05T09:11:10.837Z,97391.22
2022-11-05T09:13:37.191Z,97397.03
2022-11-05T09:16:03.791Z,97383.19
2022-11-05T09:18:30.776Z,97408.72
2022-11-05T09:20:57.204Z,97409.56
2022-11-05T09:23:23.610Z,97405.09
2022-11-05T09:25:50.009Z,97410.97
2022-11-05T09:28:21.215Z,97406.22
2022-11-05T09:30:49.958Z,97414.06
2022-11-05T09:33:18.319Z,97400.78
2022-11-05T09:35:44.835Z,97424.78
2022-11-05T09:38:11.498Z,97412.94
2022-11-05T09:41:10.030Z,97429.72
2022-11-05T09:43:41.872Z,97411.53
2022-11-05T09:46:17.309Z,97427.94
2022-11-05T09:48:47.880Z,97430.22
2022-11-05T09:51:20.723Z,97425.34
2022-11-05T09:53:50.460Z,97429.03
2022-11-05T09:56:40.293Z,97431.56
2022-11-05T09:59:26.144Z,97428.19
2022-11-05T10:02:02.621Z,97430.63
2022-11-05T10:04:31.122Z,97424.31
2022-11-05T10:07:05.867Z,97426.06
2022-11-05T10:09:40.796Z,97450.63
2022-11-05T10:12:21.172Z,97452.47
2022-11-05T10:15:02.929Z,97433.56
2022-11-05T10:17:33.769Z,97435.88
2022-11-05T10:20:30.457Z,97437.69
2022-11-05T10:23:01.125Z,97449.88
2022-11-05T10:25:35.069Z,97452.34
2022-11-05T10:28:04.599Z,97438.63
2022-11-05T10:30:31.581Z,97455.16
2022-11-05T10:33:02.263Z,97457.16
2022-11-05T10:35:33.933Z,97457.91
2022-11-05T10:38:01.918Z,97463.34
2022-11-05T10:40:51.210Z,97463.41
2022-11-05T10:43:24.942Z,97457.31
2022-11-05T10:46:18.999Z,97472.22
2022-11-05T10:49:11.126Z,97468.53
2022-11-05T10:51:38.372Z,97458.53
2022-11-05T10:54:16.917Z,97455.63
2022-11-05T10:56:43.437Z,97460.84
2022-11-05T10:59:22.879Z,97466.06
2022-11-05T11:02:20.509Z,97463.00
2022-11-05T11:04:52.755Z,97453.50
2022-11-05T11:07:25.517Z,97452.81
2022-11-05T11:09:52.653Z,97450.41
2022-11-05T11:12:25.771Z,97457.84
2022-11-05T11:15:13.117Z,97444.91
2022-11-05T11:17:39.741Z,97462.91
2022-11-05T11:20:25.991Z,97451.47
2022-11-05T11:23:17.267Z,97452.72
2022-11-05T11:26:00.507Z,97459.84
2022-11-05T11:28:33.530Z,97460.59
2022-11-05T11:31:20.784Z,97456.56
2022-11-05T11:33:50.420Z,97443.38
2022-11-05T11:36:19.735Z,97449.16
2022-11-05T11:38:46.409Z,97461.19
2022-11-05T11:41:18.619Z,97446.97
2022-11-05T11:43:45.544Z,97453.88
2022-11-05T11:46:16.183Z,97444.63
2022-11-05T11:48:47.328Z,97452.72
2022-11-05T11:51:40.552Z,97468.66
2022-11-05T11:54:19.720Z,97457.81
2022-11-05T11:56:47.904Z,97459.34
2022-11-05T11:59:47.197Z,97469.13
2022-11-05T12:02:27.943Z,97461.25
2022-11-05T12:05:32.102Z,97472.00
2022-11-05T12:08:36.066Z,97465.47
2022-11-05T12:11:12.997Z,97460.78
2022-11-05T12:14:23.859Z,97451.66
2022-11-05T12:17:07.242Z,97453.66
2022-11-05T12:19:34.231Z,97457.69
2022-11-05T12:22:25.333Z,97449.75
2022-11-05T12:25:14.412Z,97454.81
2022-11-05T12:27:52.957Z,97445.88
2022-11-05T12:30:21.485Z,97445.81
2022-11-05T12:33:12.663Z,97449.75
2022-11-05T12:36:10.310Z,97448.88
2022-11-05T12:38:53.260Z,97446.56
2022-11-05T12:41:33.109Z,97456.84
2022-11-05T12:44:35.893Z,97457.44
2022-11-05T12:47:18.592Z,97454.25
2022-11-05T12:49:50.977Z,97453.19
2022-11-05T12:52:35.592Z,97454.44
2022-11-05T12:55:13.345Z,97463.09
2022-11-05T12:57:42.352Z,97454.91
2022-11-05T13:00:18.656Z,97444.34
2022-11-05T13:03:10.199Z,97455.78
2022-11-05T13:05:45.603Z,97448.66
2022-11-05T13:08:18.853Z,97452.47
2022-11-05T13:10:51.893Z,97463.25
2022-11-05T13:13:40.765Z,97456.59
2022-11-05T13:16:45.337Z,97465.34
2022-11-05T13:19:29.490Z,97440.00
2022-11-05T13:22:21.947Z,97449.03
2022-11-05T13:24:50.880Z,97451.25
2022-11-05T13:27:45.854Z,97443.94
2022-11-05T13:30:20.710Z,97430.38
2022-11-05T13:33:04.170Z,97454.41
2022-11-05T13:35:37.338Z,97446.44
2022-11-05T13:38:26.138Z,97441.81
2022-11-05T13:41:11.941Z,97449.13
2022-11-05T13:44:02.412Z,97450.28
2022-11-05T13:46:40.806Z,97440.00
2022-11-05T13:49:43.942Z,97433.88
2022-11-05T13:52:28.329Z,97457.41
2022-11-05T13:55:17.894Z,97455.78
2022-11-05T13:57:51.577Z,97446.91
2022-11-05T14:00:22.202Z,97455.88
2022-11-05T14:02:56.791Z,97453.69
2022-11-05T14:05:40.057Z,97449.34
2022-11-05T14:08:12.307Z,97457.72
2022-11-05T14:10:43.772Z,97452.53
2022-11-05T14:13:25.455Z,97445.31
2022-11-05T14:16:04.349Z,97455.59
2022-11-05T14:18:38.772Z,97466.38
2022-11-05T14:21:26.408Z,97463.56
2022-11-05T14:24:19.493Z,97458.47
2022-11-05T14:27:05.769Z,97457.41
2022-11-05T14:29:40.550Z,97452.75
2022-11-05T14:32:21.830Z,97460.81
2022-11-05T14:35:04.140Z,97451.88
2022-11-05T14:37:36.950Z,97455.34
2022-11-05T14:40:39.578Z,97461.03
2022-11-05T14:43:17.165Z,97466.91
2022-11-05T14:45:54.600Z,97460.25
2022-11-05T14:48:46.524Z,97463.91
2022-11-05T14:51:28.184Z,97463.63
2022-11-05T14:54:17.888Z,97459.41
2022-11-05T14:56:56.312Z,97454.00
2022-11-05T14:59:31.347Z,97452.13
2022-11-05T15:02:05.067Z,97451.91
2022-11-05T15:04:35.698Z,97437.75
2022-11-05T15:07:02.010Z,97454.41
2022-11-05T15:09:46.587Z,97457.88
2022-11-05T15:12:16.796Z,97458.94
2022-11-05T15:14:57.284Z,97442.00
2022-11-05T15:17:29.904Z,97442.22
2022-11-05T15:20:18.623Z,97439.66
2022-11-05T15:22:49.438Z,97438.94
2022-11-05T15:25:24.167Z,97442.13
2022-11-05T15:28:01.907Z,97435.56
2022-11-05T15:30:28.368Z,97444.41
2022-11-05T15:32:54.751Z,97430.59
2022-11-05T15:35:28.612Z,97449.97
2022-11-05T15:38:02.200Z,97446.94
2022-11-05T15:40:31.355Z,97438.75
2022-11-05T15:43:17.230Z,97438.81
2022-11-05T15:45:56.971Z,97436.47
2022-11-05T15:48:23.307Z,97446.16
2022-11-05T15:50:49.912Z,97435.38
2022-11-05T15:56:39.591Z,97446.38
2022-11-05T15:59:27.628Z,97447.75
2022-11-05T16:01:58.080Z,97446.44
2022-11-05T16:04:33.397Z,97438.72
2022-11-05T16:07:06.723Z,97447.81
2022-11-05T16:09:36.061Z,97449.63
2022-11-05T16:12:20.945Z,97449.91
2022-11-05T16:14:57.980Z,97457.94
2022-11-05T16:17:27.563Z,97457.47
2022-11-05T16:19:54.443Z,97456.72
2022-11-05T16:22:20.872Z,97451.63
2022-11-05T16:24:47.823Z,97470.00
2022-11-05T16:27:20.062Z,97472.28
2022-11-05T16:29:52.881Z,97471.84
2022-11-05T16:32:30.287Z,97481.63
2022-11-05T16:35:00.674Z,97481.19
2022-11-05T16:37:28.951Z,97483.69
2022-11-05T16:39:55.606Z,97480.34
2022-11-05T16:42:22.000Z,97497.38
2022-11-05T16:44:52.703Z,97498.94
2022-11-05T16:47:20.382Z,97498.97
2022-11-05T16:49:50.541Z,97485.34
2022-11-05T16:52:16.951Z,97496.19
2022-11-05T16:54:43.371Z,97500.06
2022-11-05T16:57:28.335Z,97502.91
2022-11-05T16:59:55.828Z,97513.78
2022-11-05T17:02:22.861Z,97498.59
2022-11-05T17:04:49.442Z,97497.56
2022-11-05T17:07:16.116Z,97492.41
2022-11-05T17:09:42.488Z,97504.28
2022-11-05T17:12:11.041Z,97500.91
2022-11-05T17:14:37.414Z,97497.56
2022-11-05T17:17:04.990Z,97490.06
2022-11-05T17:19:31.605Z,97493.69
2022-11-05T17:21:57.965Z,97483.91
2022-11-05T17:24:24.340Z,97497.56
2022-11-05T17:26:50.714Z,97501.19
2022-11-05T17:29:17.075Z,97500.69
2022-11-05T17:31:43.408Z,97504.84
2022-11-05T17:34:10.507Z,97505.88
2022-11-05T17:36:36.887Z,97502.75
2022-11-05T17:39:03.364Z,97505.34
2022-11-05T17:41:29.779Z,97502.50
2022-11-05T17:43:57.339Z,97509.47
2022-11-05T17:46:24.258Z,97503.78
2022-11-05T17:48:51.278Z,97511.28
2022-11-05T17:51:18.962Z,97512.06
2022-11-05T17:53:47.215Z,97507.91
2022-11-05T17:56:24.605Z,97513.84
2022-11-05T17:58:55.956Z,97518.47
2022-11-05T18:01:31.632Z,97497.88
2022-11-05T18:04:01.261Z,97506.63
2022-11-05T18:06:30.400Z,97512.56
2022-11-05T18:08:56.743Z,97507.41
2022-11-05T18:11:23.086Z,97512.03
2022-11-05T18:13:49.457Z,97517.16
2022-11-05T18:16:15.873Z,97509.50
2022-11-05T18:18:42.250Z,97520.03
2022-11-05T18:21:08.689Z,97517.44
2022-11-05T18:23:35.119Z,97505.63
2022-11-05T18:26:01.528Z,97508.47
2022-11-05T18:28:30.977Z,97506.94
2022-11-05T18:30:57.347Z,97512.38
2022-11-05T18:33:23.782Z,97527.09
2022-11-05T18:35:50.145Z,97526.03
2022-11-05T18:38:16.536Z,97531.47
2022-11-05T18:40:42.905Z,97528.38
2022-11-05T18:43:09.621Z,97525.06
2022-11-05T18:45:36.242Z,97526.06
2022-11-05T18:48:03.193Z,97524.28
2022-11-05T18:50:30.035Z,97534.31
2022-11-05T18:52:56.629Z,97536.66
2022-11-05T18:55:24.015Z,97549.28
2022-11-05T18:57:50.462Z,97551.88
2022-11-05T19:00:17.129Z,97546.97
2022-11-05T19:02:43.604Z,97532.28
2022-11-05T19:07:56.697Z,97534.84
2022-11-05T19:10:23.087Z,97532.03
2022-11-05T19:12:49.461Z,97523.53
2022-11-05T19:15:16.225Z,97536.41
2022-11-05T19:17:43.123Z,97526.09
2022-11-05T19:20:09.889Z,97531.50
2022-11-05T19:22:36.373Z,97534.59
2022-11-05T19:25:03.259Z,97534.06
2022-11-05T19:27:29.707Z,97521.94
2022-11-05T19:29:56.185Z,97532.00
2022-11-05T19:32:22.613Z,97525.81
2022-11-05T19:34:48.959Z,97524.28
2022-11-05T19:37:15.876Z,97523.78
2022-11-05T19:39:42.305Z,97533.28
2022-11-05T19:42:08.678Z,97526.06
2022-11-05T19:44:35.127Z,97510.34
2022-11-05T19:47:01.482Z,97512.41
2022-11-05T19:49:28.464Z,97521.66
2022-11-05T19:51:55.112Z,97522.94
2022-11-05T19:54:21.733Z,97522.41
2022-11-05T19:56:50.434Z,97505.41
2022-11-05T19:59:17.000Z,97509.78
2022-11-05T20:01:43.618Z,97517.75
2022-11-05T20:04:11.873Z,97512.13
2022-11-05T20:06:39.929Z,97519.31
2022-11-05T20:09:27.117Z,97518.28
2022-11-05T20:11:56.047Z,97519.06
2022-11-05T20:14:23.547Z,97518.03
2022-11-05T20:16:50.682Z,97518.53
2022-11-05T20:19:20.682Z,97508.47
2022-11-05T20:21:47.591Z,97516.75
2022-11-05T20:24:22.383Z,97512.91
2022-11-05T20:26:50.417Z,97498.72
2022-11-05T20:29:16.901Z,97509.00
2022-11-05T20:31:43.345Z,97511.56
2022-11-05T20:34:10.421Z,97512.63
2022-11-05T20:36:36.784Z,97512.06
2022-11-05T20:39:03.822Z,97511.03
2022-11-05T20:41:31.433Z,97507.97
2022-11-05T20:43:57.943Z,97512.06
2022-11-05T20:46:24.684Z,97514.09
2022-11-05T20:48:51.435Z,97522.13
2022-11-05T20:51:21.089Z,97518.78
2022-11-05T20:53:47.822Z,97535.00
2022-11-05T20:56:23.620Z,97523.69
2022-11-05T20:58:50.423Z,97522.41
2022-11-05T21:01:18.075Z,97527.00
2022-11-05T21:03:45.646Z,97524.19
2022-11-05T21:06:12.809Z,97518.53
2022-11-05T21:08:39.995Z,97518.78
2022-11-05T21:11:07.180Z,97521.13
2022-11-05T21:13:33.971Z,97520.06
2022-11-05T21:16:01.393Z,97518.25
2022-11-05T21:18:30.353Z,97520.84
2022-11-05T21:20:56.939Z,97507.69
2022-11-05T21:23:23.381Z,97524.97
2022-11-05T21:25:49.785Z,97506.13
2022-11-05T21:28:16.594Z,97530.13
2022-11-05T21:30:45.650Z,97514.94
2022-11-05T21:33:14.289Z,97523.44
2022-11-05T21:35:45.967Z,97527.28
2022-11-05T21:38:14.550Z,97525.72
2022-11-05T21:40:41.668Z,97513.63
2022-11-05T21:43:08.789Z,97513.63
2022-11-05T21:45:38.320Z,97531.69
2022-11-05T21:48:05.042Z,97526.78
2022-11-05T21:50:49.846Z,97532.97
2022-11-05T21:53:35.978Z,97543.78
2022-11-05T21:56:25.966Z,97536.09
2022-11-05T21:59:10.723Z,97531.94
2022-11-05T22:01:37.203Z,97528.84
2022-11-05T22:04:03.726Z,97537.34
2022-11-05T22:06:32.997Z,97543.28
2022-11-05T22:08:59.479Z,97525.78
2022-11-05T22:11:26.010Z,97528.59
2022-11-05T22:13:53.143Z,97514.69
2022-11-05T22:16:19.525Z,97515.44
2022-11-05T22:18:45.881Z,97514.91
2022-11-05T22:21:20.625Z,97524.97
2022-11-05T22:23:46.976Z,97509.53
2022-11-05T22:26:13.443Z,97522.41
2022-11-05T22:28:39.771Z,97519.34
2022-11-05T22:31:15.653Z,97529.38
2022-11-05T22:33:42.872Z,97513.69
2022-11-05T22:36:09.897Z,97525.81
2022-11-05T22:38:36.616Z,97524.75
2022-11-05T22:41:12.887Z,97529.41
2022-11-05T22:43:40.099Z,97527.34
2022-11-05T22:46:08.951Z,97533.56
2022-11-05T22:48:36.562Z,97532.78
2022-11-05T22:51:05.144Z,97535.38
2022-11-05T22:53:32.128Z,97528.38
2022-11-05T22:55:58.466Z,97536.13
2022-11-05T22:58:24.874Z,97531.22
2022-11-05T23:00:51.220Z,97532.50
2022-11-05T23:03:17.594Z,97527.56
2022-11-05T23:05:43.957Z,97532.72
2022-11-05T23:08:28.715Z,97511.56
2022-11-05T23:11:13.458Z,97514.91
2022-11-05T23:13:39.805Z,97512.59
2022-11-05T23:16:25.035Z,97518.81
2022-11-05T23:19:09.828Z,97517.75
2022-11-05T23:22:08.312Z,97512.06
2022-11-05T23:24:34.654Z,97507.97
2022-11-05T23:27:00.990Z,97513.91
2022-11-05T23:29:27.812Z,97510.03
2022-11-05T23:32:12.764Z,97507.94
2022-11-05T23:34:39.407Z,97494.81
2022-11-05T23:37:24.901Z,97497.13
2022-11-05T23:39:51.495Z,97490.16
2022-11-05T23:42:37.039Z,97496.88
2022-11-05T23:45:23.223Z,97488.88
2022-11-05T23:48:08.437Z,97483.72
2022-11-05T23:50:39.625Z,97493.25
2022-11-05T23:53:06.315Z,97483.16
2022-11-05T23:55:32.709Z,97485.72
2022-11-05T23:57:59.090Z,97469.69
